sensor_id;sensor_type;location;lat;lon;timestamp;P1;durP1;ratioP1;P2;durP2;ratioP2
8462;SDS011;4268;52.506;13.462;2022-09-09T00:04:45;15.77;;;14.87;;
8462;SDS011;4268;52.506;13.462;2022-09-09T00:15:52;16.63;;;15.73;;
8462;SDS011;4268;52.506;13.462;2022-09-09T00:18:31;16.97;;;15.97;;
8462;SDS011;4268;52.506;13.462;2022-09-09T00:21:14;18.27;;;17.17;;
8462;SDS011;4268;52.506;13.462;2022-09-09T00:23:51;17.33;;;16.33;;
8462;SDS011;4268;52.506;13.462;2022-09-09T00:31:24;17.20;;;16.20;;
8462;SDS011;4268;52.506;13.462;2022-09-09T00:33:53;16.43;;;15.43;;
8462;SDS011;4268;52.506;13.462;2022-09-09T00:36:23;16.27;;;15.17;;
8462;SDS011;4268;52.506;13.462;2022-09-09T00:38:52;16.37;;;15.37;;
8462;SDS011;4268;52.506;13.462;2022-09-09T00:55:10;16.03;;;15.07;;
8462;SDS011;4268;52.506;13.462;2022-09-09T00:57:46;15.03;;;14.23;;
8462;SDS011;4268;52.506;13.462;2022-09-09T01:02:50;15.30;;;14.30;;
8462;SDS011;4268;52.506;13.462;2022-09-09T01:05:30;15.83;;;14.83;;
8462;SDS011;4268;52.506;13.462;2022-09-09T01:08:02;15.87;;;14.77;;
8462;SDS011;4268;52.506;13.462;2022-09-09T01:10:37;13.83;;;13.00;;
8462;SDS011;4268;52.506;13.462;2022-09-09T01:13:17;14.73;;;13.73;;
8462;SDS011;4268;52.506;13.462;2022-09-09T01:15:55;15.33;;;14.43;;
8462;SDS011;4268;52.506;13.462;2022-09-09T01:18:33;15.63;;;14.53;;
8462;SDS011;4268;52.506;13.462;2022-09-09T01:26:26;17.17;;;16.20;;
8462;SDS011;4268;52.506;13.462;2022-09-09T01:29:02;15.00;;;14.20;;
8462;SDS011;4268;52.506;13.462;2022-09-09T01:34:18;16.00;;;14.90;;
8462;SDS011;4268;52.506;13.462;2022-09-09T01:36:58;13.80;;;13.00;;
8462;SDS011;4268;52.506;13.462;2022-09-09T01:39:29;12.90;;;12.00;;
8462;SDS011;4268;52.506;13.462;2022-09-09T01:41:56;12.83;;;11.97;;
8462;SDS011;4268;52.506;13.462;2022-09-09T01:44:22;12.30;;;11.50;;
8462;SDS011;4268;52.506;13.462;2022-09-09T01:46:49;11.70;;;11.00;;
8462;SDS011;4268;52.506;13.462;2022-09-09T01:49:14;12.60;;;11.63;;
8462;SDS011;4268;52.506;13.462;2022-09-09T01:51:42;12.63;;;11.83;;
8462;SDS011;4268;52.506;13.462;2022-09-09T01:54:08;13.10;;;12.30;;
8462;SDS011;4268;52.506;13.462;2022-09-09T01:56:40;12.30;;;11.60;;
8462;SDS011;4268;52.506;13.462;2022-09-09T02:02:13;11.13;;;10.43;;
8462;SDS011;4268;52.506;13.462;2022-09-09T02:04:58;12.47;;;11.67;;
8462;SDS011;4268;52.506;13.462;2022-09-09T02:07:41;11.60;;;10.90;;
8462;SDS011;4268;52.506;13.462;2022-09-09T02:10:16;11.90;;;11.20;;
8462;SDS011;4268;52.506;13.462;2022-09-09T02:12:50;11.83;;;11.03;;
8462;SDS011;4268;52.506;13.462;2022-09-09T02:15:26;11.63;;;10.97;;
8462;SDS011;4268;52.506;13.462;2022-09-09T02:17:57;12.17;;;11.37;;
8462;SDS011;4268;52.506;13.462;2022-09-09T02:20:23;13.20;;;12.40;;
8462;SDS011;4268;52.506;13.462;2022-09-09T02:22:52;12.97;;;12.17;;
8462;SDS011;4268;52.506;13.462;2022-09-09T02:25:19;12.80;;;12.10;;
8462;SDS011;4268;52.506;13.462;2022-09-09T02:27:47;13.03;;;12.07;;
8462;SDS011;4268;52.506;13.462;2022-09-09T02:30:16;13.57;;;12.77;;
8462;SDS011;4268;52.506;13.462;2022-09-09T02:32:43;13.10;;;12.30;;
8462;SDS011;4268;52.506;13.462;2022-09-09T02:35:12;12.53;;;11.73;;
8462;SDS011;4268;52.506;13.462;2022-09-09T02:37:40;12.57;;;11.77;;
8462;SDS011;4268;52.506;13.462;2022-09-09T02:40:08;13.17;;;12.33;;
8462;SDS011;4268;52.506;13.462;2022-09-09T02:42:39;14.13;;;13.23;;
8462;SDS011;4268;52.506;13.462;2022-09-09T02:45:10;13.43;;;12.53;;
8462;SDS011;4268;52.506;13.462;2022-09-09T02:47:40;13.00;;;12.10;;
8462;SDS011;4268;52.506;13.462;2022-09-09T02:53:02;12.47;;;11.67;;
8462;SDS011;4268;52.506;13.462;2022-09-09T02:58:05;11.87;;;11.17;;
8462;SDS011;4268;52.506;13.462;2022-09-09T03:00:33;12.33;;;11.60;;
8462;SDS011;4268;52.506;13.462;2022-09-09T03:03:01;12.00;;;11.30;;
8462;SDS011;4268;52.506;13.462;2022-09-09T03:05:30;12.00;;;11.10;;
8462;SDS011;4268;52.506;13.462;2022-09-09T03:07:56;12.67;;;11.93;;
8462;SDS011;4268;52.506;13.462;2022-09-09T03:10:22;11.23;;;10.53;;
8462;SDS011;4268;52.506;13.462;2022-09-09T03:12:48;11.87;;;11.17;;
8462;SDS011;4268;52.506;13.462;2022-09-09T03:15:13;10.70;;;10.00;;
8462;SDS011;4268;52.506;13.462;2022-09-09T03:17:40;10.17;;;9.47;;
8462;SDS011;4268;52.506;13.462;2022-09-09T03:20:06;10.87;;;10.17;;
8462;SDS011;4268;52.506;13.462;2022-09-09T03:22:32;10.57;;;9.87;;
8462;SDS011;4268;52.506;13.462;2022-09-09T03:24:58;10.90;;;10.20;;
8462;SDS011;4268;52.506;13.462;2022-09-09T03:27:23;10.80;;;10.10;;
8462;SDS011;4268;52.506;13.462;2022-09-09T03:29:49;11.43;;;10.70;;
8462;SDS011;4268;52.506;13.462;2022-09-09T03:32:17;11.43;;;10.73;;
8462;SDS011;4268;52.506;13.462;2022-09-09T03:34:43;13.33;;;12.43;;
8462;SDS011;4268;52.506;13.462;2022-09-09T03:37:12;12.67;;;11.87;;
8462;SDS011;4268;52.506;13.462;2022-09-09T03:39:37;13.00;;;12.00;;
8462;SDS011;4268;52.506;13.462;2022-09-09T03:42:03;12.33;;;11.53;;
8462;SDS011;4268;52.506;13.462;2022-09-09T03:44:29;12.83;;;11.93;;
8462;SDS011;4268;52.506;13.462;2022-09-09T03:46:55;13.10;;;12.30;;
8462;SDS011;4268;52.506;13.462;2022-09-09T03:49:20;13.53;;;12.73;;
8462;SDS011;4268;52.506;13.462;2022-09-09T03:51:47;13.23;;;12.50;;
8462;SDS011;4268;52.506;13.462;2022-09-09T03:54:12;12.53;;;11.83;;
8462;SDS011;4268;52.506;13.462;2022-09-09T03:56:37;11.80;;;11.00;;
8462;SDS011;4268;52.506;13.462;2022-09-09T03:59:03;11.97;;;11.27;;
8462;SDS011;4268;52.506;13.462;2022-09-09T04:01:29;11.30;;;10.67;;
8462;SDS011;4268;52.506;13.462;2022-09-09T04:03:54;11.30;;;10.63;;
8462;SDS011;4268;52.506;13.462;2022-09-09T04:06:22;11.60;;;10.90;;
8462;SDS011;4268;52.506;13.462;2022-09-09T04:08:48;12.17;;;11.27;;
8462;SDS011;4268;52.506;13.462;2022-09-09T04:11:14;11.53;;;10.83;;
8462;SDS011;4268;52.506;13.462;2022-09-09T04:13:40;10.83;;;10.13;;
8462;SDS011;4268;52.506;13.462;2022-09-09T04:16:07;10.57;;;9.73;;
8462;SDS011;4268;52.506;13.462;2022-09-09T04:18:34;10.40;;;9.70;;
8462;SDS011;4268;52.506;13.462;2022-09-09T04:20:59;11.03;;;10.13;;
8462;SDS011;4268;52.506;13.462;2022-09-09T04:23:26;11.40;;;10.70;;
8462;SDS011;4268;52.506;13.462;2022-09-09T04:25:54;12.17;;;11.27;;
8462;SDS011;4268;52.506;13.462;2022-09-09T04:28:22;12.10;;;11.20;;
8462;SDS011;4268;52.506;13.462;2022-09-09T04:30:49;10.70;;;9.90;;
8462;SDS011;4268;52.506;13.462;2022-09-09T04:33:15;11.13;;;10.43;;
8462;SDS011;4268;52.506;13.462;2022-09-09T04:35:46;11.80;;;11.10;;
8462;SDS011;4268;52.506;13.462;2022-09-09T04:38:12;11.90;;;11.20;;
8462;SDS011;4268;52.506;13.462;2022-09-09T04:40:39;12.07;;;11.17;;
8462;SDS011;4268;52.506;13.462;2022-09-09T04:43:08;11.43;;;10.77;;
8462;SDS011;4268;52.506;13.462;2022-09-09T04:45:34;11.57;;;10.77;;
8462;SDS011;4268;52.506;13.462;2022-09-09T04:47:59;12.03;;;11.33;;
8462;SDS011;4268;52.506;13.462;2022-09-09T04:50:25;12.70;;;11.90;;
8462;SDS011;4268;52.506;13.462;2022-09-09T04:52:51;11.20;;;10.50;;
8462;SDS011;4268;52.506;13.462;2022-09-09T04:55:17;12.53;;;11.77;;
8462;SDS011;4268;52.506;13.462;2022-09-09T04:57:42;12.23;;;11.23;;
8462;SDS011;4268;52.506;13.462;2022-09-09T05:00:08;11.63;;;10.93;;
8462;SDS011;4268;52.506;13.462;2022-09-09T05:02:38;12.73;;;11.83;;
8462;SDS011;4268;52.506;13.462;2022-09-09T05:05:05;11.40;;;10.70;;
8462;SDS011;4268;52.506;13.462;2022-09-09T05:07:31;11.60;;;10.80;;
8462;SDS011;4268;52.506;13.462;2022-09-09T05:09:57;9.87;;;9.27;;
8462;SDS011;4268;52.506;13.462;2022-09-09T05:12:23;9.60;;;9.00;;
8462;SDS011;4268;52.506;13.462;2022-09-09T05:14:52;10.57;;;9.73;;
8462;SDS011;4268;52.506;13.462;2022-09-09T05:17:17;12.87;;;11.87;;
8462;SDS011;4268;52.506;13.462;2022-09-09T05:19:43;10.13;;;9.43;;
8462;SDS011;4268;52.506;13.462;2022-09-09T05:22:09;11.13;;;10.27;;
8462;SDS011;4268;52.506;13.462;2022-09-09T05:24:35;11.27;;;10.37;;
8462;SDS011;4268;52.506;13.462;2022-09-09T05:27:01;11.50;;;10.67;;
8462;SDS011;4268;52.506;13.462;2022-09-09T05:29:27;11.63;;;10.73;;
8462;SDS011;4268;52.506;13.462;2022-09-09T05:31:53;10.90;;;9.90;;
8462;SDS011;4268;52.506;13.462;2022-09-09T05:34:18;10.87;;;10.17;;
8462;SDS011;4268;52.506;13.462;2022-09-09T05:36:45;8.43;;;7.80;;
8462;SDS011;4268;52.506;13.462;2022-09-09T05:39:11;7.70;;;6.97;;
8462;SDS011;4268;52.506;13.462;2022-09-09T05:41:37;7.80;;;7.10;;
8462;SDS011;4268;52.506;13.462;2022-09-09T05:44:02;8.03;;;7.33;;
8462;SDS011;4268;52.506;13.462;2022-09-09T05:46:28;8.07;;;7.47;;
8462;SDS011;4268;52.506;13.462;2022-09-09T05:48:54;7.27;;;6.67;;
8462;SDS011;4268;52.506;13.462;2022-09-09T05:51:21;7.90;;;7.40;;
8462;SDS011;4268;52.506;13.462;2022-09-09T05:53:49;9.13;;;8.63;;
8462;SDS011;4268;52.506;13.462;2022-09-09T05:56:17;8.63;;;7.90;;
8462;SDS011;4268;52.506;13.462;2022-09-09T05:58:44;6.70;;;6.13;;
8462;SDS011;4268;52.506;13.462;2022-09-09T06:01:21;6.70;;;6.00;;
8462;SDS011;4268;52.506;13.462;2022-09-09T06:03:50;6.90;;;5.87;;
8462;SDS011;4268;52.506;13.462;2022-09-09T06:06:17;6.97;;;6.47;;
8462;SDS011;4268;52.506;13.462;2022-09-09T06:08:46;7.50;;;6.90;;
8462;SDS011;4268;52.506;13.462;2022-09-09T06:11:13;6.67;;;6.17;;
8462;SDS011;4268;52.506;13.462;2022-09-09T06:13:40;6.70;;;6.20;;
8462;SDS011;4268;52.506;13.462;2022-09-09T06:16:14;6.23;;;5.60;;
8462;SDS011;4268;52.506;13.462;2022-09-09T06:18:41;5.27;;;4.60;;
8462;SDS011;4268;52.506;13.462;2022-09-09T06:21:09;6.73;;;6.17;;
8462;SDS011;4268;52.506;13.462;2022-09-09T06:23:40;5.63;;;5.17;;
8462;SDS011;4268;52.506;13.462;2022-09-09T06:26:11;5.13;;;4.50;;
8462;SDS011;4268;52.506;13.462;2022-09-09T06:28:38;4.77;;;4.37;;
8462;SDS011;4268;52.506;13.462;2022-09-09T06:31:05;4.30;;;4.00;;
8462;SDS011;4268;52.506;13.462;2022-09-09T06:33:33;3.47;;;3.20;;
8462;SDS011;4268;52.506;13.462;2022-09-09T06:36:00;3.47;;;3.13;;
8462;SDS011;4268;52.506;13.462;2022-09-09T06:38:28;5.07;;;3.53;;
8462;SDS011;4268;52.506;13.462;2022-09-09T06:40:54;5.00;;;3.57;;
8462;SDS011;4268;52.506;13.462;2022-09-09T06:43:21;4.43;;;4.00;;
8462;SDS011;4268;52.506;13.462;2022-09-09T06:45:54;6.47;;;5.87;;
8462;SDS011;4268;52.506;13.462;2022-09-09T06:48:21;5.70;;;5.20;;
8462;SDS011;4268;52.506;13.462;2022-09-09T06:50:46;3.70;;;3.43;;
8462;SDS011;4268;52.506;13.462;2022-09-09T06:53:12;4.17;;;3.13;;
8462;SDS011;4268;52.506;13.462;2022-09-09T06:55:41;3.10;;;2.80;;
8462;SDS011;4268;52.506;13.462;2022-09-09T06:58:09;3.20;;;2.73;;
8462;SDS011;4268;52.506;13.462;2022-09-09T07:00:34;3.20;;;3.00;;
8462;SDS011;4268;52.506;13.462;2022-09-09T07:03:02;2.53;;;2.27;;
8462;SDS011;4268;52.506;13.462;2022-09-09T07:05:28;2.65;;;2.45;;
8462;SDS011;4268;52.506;13.462;2022-09-09T07:07:53;3.60;;;3.30;;
8462;SDS011;4268;52.506;13.462;2022-09-09T07:10:19;4.55;;;4.25;;
8462;SDS011;4268;52.506;13.462;2022-09-09T07:12:44;3.65;;;3.40;;
8462;SDS011;4268;52.506;13.462;2022-09-09T07:15:14;3.35;;;2.97;;
8462;SDS011;4268;52.506;13.462;2022-09-09T07:17:40;3.88;;;3.00;;
8462;SDS011;4268;52.506;13.462;2022-09-09T07:20:05;3.50;;;2.60;;
8462;SDS011;4268;52.506;13.462;2022-09-09T07:22:31;2.30;;;2.20;;
8462;SDS011;4268;52.506;13.462;2022-09-09T07:24:57;3.08;;;2.63;;
8462;SDS011;4268;52.506;13.462;2022-09-09T07:27:23;2.97;;;2.55;;
8462;SDS011;4268;52.506;13.462;2022-09-09T07:29:48;2.70;;;2.50;;
8462;SDS011;4268;52.506;13.462;2022-09-09T07:32:14;3.53;;;2.60;;
8462;SDS011;4268;52.506;13.462;2022-09-09T07:34:40;2.80;;;2.60;;
8462;SDS011;4268;52.506;13.462;2022-09-09T07:37:05;3.50;;;2.95;;
8462;SDS011;4268;52.506;13.462;2022-09-09T07:39:31;2.72;;;2.53;;
8462;SDS011;4268;52.506;13.462;2022-09-09T07:41:56;2.90;;;2.70;;
8462;SDS011;4268;52.506;13.462;2022-09-09T07:44:24;3.60;;;2.72;;
8462;SDS011;4268;52.506;13.462;2022-09-09T07:46:50;3.03;;;2.45;;
8462;SDS011;4268;52.506;13.462;2022-09-09T07:49:15;4.35;;;2.60;;
8462;SDS011;4268;52.506;13.462;2022-09-09T07:51:43;3.47;;;2.60;;
8462;SDS011;4268;52.506;13.462;2022-09-09T07:54:11;2.78;;;2.53;;
8462;SDS011;4268;52.506;13.462;2022-09-09T07:56:38;3.10;;;2.80;;
8462;SDS011;4268;52.506;13.462;2022-09-09T07:59:05;3.58;;;3.00;;
8462;SDS011;4268;52.506;13.462;2022-09-09T08:01:35;6.80;;;3.08;;
8462;SDS011;4268;52.506;13.462;2022-09-09T08:04:05;3.13;;;2.83;;
8462;SDS011;4268;52.506;13.462;2022-09-09T08:06:36;2.92;;;2.50;;
8462;SDS011;4268;52.506;13.462;2022-09-09T08:09:03;3.03;;;2.50;;
8462;SDS011;4268;52.506;13.462;2022-09-09T08:11:30;4.95;;;2.70;;
8462;SDS011;4268;52.506;13.462;2022-09-09T08:13:57;3.67;;;2.75;;
8462;SDS011;4268;52.506;13.462;2022-09-09T08:16:25;2.70;;;2.50;;
8462;SDS011;4268;52.506;13.462;2022-09-09T08:18:53;2.90;;;2.53;;
8462;SDS011;4268;52.506;13.462;2022-09-09T08:21:21;3.97;;;3.50;;
8462;SDS011;4268;52.506;13.462;2022-09-09T08:23:53;3.07;;;2.77;;
8462;SDS011;4268;52.506;13.462;2022-09-09T08:26:24;4.30;;;3.90;;
8462;SDS011;4268;52.506;13.462;2022-09-09T08:28:59;5.00;;;4.60;;
8462;SDS011;4268;52.506;13.462;2022-09-09T08:31:29;2.50;;;2.40;;
8462;SDS011;4268;52.506;13.462;2022-09-09T08:34:00;2.60;;;2.40;;
8462;SDS011;4268;52.506;13.462;2022-09-09T08:36:30;2.60;;;2.40;;
8462;SDS011;4268;52.506;13.462;2022-09-09T08:39:00;3.00;;;2.70;;
8462;SDS011;4268;52.506;13.462;2022-09-09T08:44:38;3.33;;;2.73;;
8462;SDS011;4268;52.506;13.462;2022-09-09T08:47:10;2.73;;;2.53;;
8462;SDS011;4268;52.506;13.462;2022-09-09T08:50:05;3.10;;;2.63;;
8462;SDS011;4268;52.506;13.462;2022-09-09T08:58:27;3.97;;;2.87;;
8462;SDS011;4268;52.506;13.462;2022-09-09T09:06:59;3.40;;;3.10;;
8462;SDS011;4268;52.506;13.462;2022-09-09T09:12:22;2.83;;;2.63;;
8462;SDS011;4268;52.506;13.462;2022-09-09T09:14:49;2.57;;;2.37;;
8462;SDS011;4268;52.506;13.462;2022-09-09T09:17:19;2.97;;;2.30;;
8462;SDS011;4268;52.506;13.462;2022-09-09T09:19:47;3.43;;;2.60;;
8462;SDS011;4268;52.506;13.462;2022-09-09T09:22:21;2.80;;;2.63;;
8462;SDS011;4268;52.506;13.462;2022-09-09T09:24:54;2.70;;;2.47;;
8462;SDS011;4268;52.506;13.462;2022-09-09T09:30:02;2.70;;;2.50;;
8462;SDS011;4268;52.506;13.462;2022-09-09T09:32:38;4.30;;;3.27;;
8462;SDS011;4268;52.506;13.462;2022-09-09T09:35:11;3.60;;;2.70;;
8462;SDS011;4268;52.506;13.462;2022-09-09T09:37:39;2.80;;;2.60;;
8462;SDS011;4268;52.506;13.462;2022-09-09T09:40:12;5.53;;;3.30;;
8462;SDS011;4268;52.506;13.462;2022-09-09T09:42:47;3.10;;;2.80;;
8462;SDS011;4268;52.506;13.462;2022-09-09T09:45:26;3.83;;;2.90;;
8462;SDS011;4268;52.506;13.462;2022-09-09T09:48:09;3.03;;;2.67;;
8462;SDS011;4268;52.506;13.462;2022-09-09T09:50:49;2.60;;;2.50;;
8462;SDS011;4268;52.506;13.462;2022-09-09T09:53:27;3.30;;;3.00;;
8462;SDS011;4268;52.506;13.462;2022-09-09T09:55:58;2.70;;;2.50;;
8462;SDS011;4268;52.506;13.462;2022-09-09T09:58:33;2.40;;;2.20;;
8462;SDS011;4268;52.506;13.462;2022-09-09T10:01:24;3.20;;;2.80;;
8462;SDS011;4268;52.506;13.462;2022-09-09T10:03:59;4.43;;;2.50;;
8462;SDS011;4268;52.506;13.462;2022-09-09T10:06:40;2.53;;;2.33;;
8462;SDS011;4268;52.506;13.462;2022-09-09T10:09:22;2.40;;;2.20;;
8462;SDS011;4268;52.506;13.462;2022-09-09T10:14:30;2.93;;;2.57;;
8462;SDS011;4268;52.506;13.462;2022-09-09T10:17:21;2.83;;;2.50;;
8462;SDS011;4268;52.506;13.462;2022-09-09T10:20:07;3.33;;;2.50;;
8462;SDS011;4268;52.506;13.462;2022-09-09T10:23:06;4.00;;;3.70;;
8462;SDS011;4268;52.506;13.462;2022-09-09T10:26:07;4.07;;;2.80;;
8462;SDS011;4268;52.506;13.462;2022-09-09T10:28:54;3.17;;;2.70;;
8462;SDS011;4268;52.506;13.462;2022-09-09T10:31:39;4.63;;;3.13;;
8462;SDS011;4268;52.506;13.462;2022-09-09T10:34:17;3.27;;;2.90;;
8462;SDS011;4268;52.506;13.462;2022-09-09T10:37:14;3.90;;;3.57;;
8462;SDS011;4268;52.506;13.462;2022-09-09T10:40:19;3.27;;;2.80;;
8462;SDS011;4268;52.506;13.462;2022-09-09T10:42:55;3.10;;;2.80;;
8462;SDS011;4268;52.506;13.462;2022-09-09T10:45:34;4.27;;;3.97;;
8462;SDS011;4268;52.506;13.462;2022-09-09T10:48:24;3.63;;;2.97;;
8462;SDS011;4268;52.506;13.462;2022-09-09T10:51:00;4.60;;;2.77;;
8462;SDS011;4268;52.506;13.462;2022-09-09T10:53:54;4.53;;;2.90;;
8462;SDS011;4268;52.506;13.462;2022-09-09T10:56:31;3.10;;;2.87;;
8462;SDS011;4268;52.506;13.462;2022-09-09T10:59:00;3.47;;;3.20;;
8462;SDS011;4268;52.506;13.462;2022-09-09T11:01:34;3.53;;;3.23;;
8462;SDS011;4268;52.506;13.462;2022-09-09T11:04:12;2.97;;;2.73;;
8462;SDS011;4268;52.506;13.462;2022-09-09T11:06:49;2.53;;;2.27;;
8462;SDS011;4268;52.506;13.462;2022-09-09T11:09:21;2.20;;;2.00;;
8462;SDS011;4268;52.506;13.462;2022-09-09T11:11:54;2.90;;;2.23;;
8462;SDS011;4268;52.506;13.462;2022-09-09T11:14:38;2.87;;;2.20;;
8462;SDS011;4268;52.506;13.462;2022-09-09T11:17:26;2.53;;;2.33;;
8462;SDS011;4268;52.506;13.462;2022-09-09T11:19:58;2.70;;;2.50;;
8462;SDS011;4268;52.506;13.462;2022-09-09T11:22:31;4.00;;;2.50;;
8462;SDS011;4268;52.506;13.462;2022-09-09T11:25:04;3.23;;;2.70;;
8462;SDS011;4268;52.506;13.462;2022-09-09T11:30:51;2.70;;;2.30;;
8462;SDS011;4268;52.506;13.462;2022-09-09T11:33:48;4.77;;;2.40;;
8462;SDS011;4268;52.506;13.462;2022-09-09T11:39:18;2.30;;;2.10;;
8462;SDS011;4268;52.506;13.462;2022-09-09T11:44:38;2.83;;;2.07;;
8462;SDS011;4268;52.506;13.462;2022-09-09T11:47:16;2.53;;;2.33;;
8462;SDS011;4268;52.506;13.462;2022-09-09T11:49:49;2.10;;;1.90;;
8462;SDS011;4268;52.506;13.462;2022-09-09T11:55:19;3.07;;;2.33;;
8462;SDS011;4268;52.506;13.462;2022-09-09T11:58:02;2.73;;;2.47;;
8462;SDS011;4268;52.506;13.462;2022-09-09T12:06:11;2.50;;;2.30;;
8462;SDS011;4268;52.506;13.462;2022-09-09T12:08:57;2.70;;;2.50;;
8462;SDS011;4268;52.506;13.462;2022-09-09T12:11:33;2.03;;;1.93;;
8462;SDS011;4268;52.506;13.462;2022-09-09T12:13:59;3.20;;;2.57;;
8462;SDS011;4268;52.506;13.462;2022-09-09T12:16:29;2.90;;;2.50;;
8462;SDS011;4268;52.506;13.462;2022-09-09T12:19:03;3.33;;;2.97;;
8462;SDS011;4268;52.506;13.462;2022-09-09T12:24:36;2.70;;;2.50;;
8462;SDS011;4268;52.506;13.462;2022-09-09T12:27:12;2.53;;;2.10;;
8462;SDS011;4268;52.506;13.462;2022-09-09T12:32:24;3.00;;;2.70;;
8462;SDS011;4268;52.506;13.462;2022-09-09T12:37:50;3.13;;;2.17;;
8462;SDS011;4268;52.506;13.462;2022-09-09T12:40:23;3.80;;;2.00;;
8462;SDS011;4268;52.506;13.462;2022-09-09T12:42:50;2.53;;;2.30;;
8462;SDS011;4268;52.506;13.462;2022-09-09T12:45:16;3.20;;;1.80;;
8462;SDS011;4268;52.506;13.462;2022-09-09T12:47:51;2.00;;;1.80;;
8462;SDS011;4268;52.506;13.462;2022-09-09T12:50:22;1.80;;;1.70;;
8462;SDS011;4268;52.506;13.462;2022-09-09T12:52:54;2.10;;;1.90;;
8462;SDS011;4268;52.506;13.462;2022-09-09T12:55:30;2.60;;;2.40;;
8462;SDS011;4268;52.506;13.462;2022-09-09T12:57:58;2.30;;;2.07;;
8462;SDS011;4268;52.506;13.462;2022-09-09T13:00:25;1.77;;;1.70;;
8462;SDS011;4268;52.506;13.462;2022-09-09T13:02:53;2.37;;;2.17;;
8462;SDS011;4268;52.506;13.462;2022-09-09T13:10:29;2.33;;;2.13;;
8462;SDS011;4268;52.506;13.462;2022-09-09T13:12:58;2.00;;;1.90;;
8462;SDS011;4268;52.506;13.462;2022-09-09T13:15:25;2.60;;;2.40;;
8462;SDS011;4268;52.506;13.462;2022-09-09T13:17:54;2.23;;;2.13;;
8462;SDS011;4268;52.506;13.462;2022-09-09T13:20:22;2.13;;;1.90;;
8462;SDS011;4268;52.506;13.462;2022-09-09T13:22:49;2.10;;;1.90;;
8462;SDS011;4268;52.506;13.462;2022-09-09T13:27:52;3.23;;;1.80;;
8462;SDS011;4268;52.506;13.462;2022-09-09T13:30:28;2.70;;;2.00;;
8462;SDS011;4268;52.506;13.462;2022-09-09T13:35:31;3.10;;;2.53;;
8462;SDS011;4268;52.506;13.462;2022-09-09T13:37:58;2.03;;;1.87;;
8462;SDS011;4268;52.506;13.462;2022-09-09T13:40:31;2.03;;;1.83;;
8462;SDS011;4268;52.506;13.462;2022-09-09T13:42:56;3.27;;;2.17;;
8462;SDS011;4268;52.506;13.462;2022-09-09T13:45:24;3.50;;;1.63;;
8462;SDS011;4268;52.506;13.462;2022-09-09T13:47:53;2.17;;;1.97;;
8462;SDS011;4268;52.506;13.462;2022-09-09T13:50:29;2.20;;;1.80;;
8462;SDS011;4268;52.506;13.462;2022-09-09T13:52:56;2.03;;;1.80;;
8462;SDS011;4268;52.506;13.462;2022-09-09T13:55:23;1.93;;;1.70;;
8462;SDS011;4268;52.506;13.462;2022-09-09T13:57:51;2.53;;;1.83;;
8462;SDS011;4268;52.506;13.462;2022-09-09T14:00:22;2.10;;;1.90;;
8462;SDS011;4268;52.506;13.462;2022-09-09T14:02:49;3.03;;;2.00;;
8462;SDS011;4268;52.506;13.462;2022-09-09T14:05:15;4.57;;;2.17;;
8462;SDS011;4268;52.506;13.462;2022-09-09T14:07:41;2.87;;;1.97;;
8462;SDS011;4268;52.506;13.462;2022-09-09T14:10:08;1.77;;;1.63;;
8462;SDS011;4268;52.506;13.462;2022-09-09T14:12:34;3.00;;;2.00;;
8462;SDS011;4268;52.506;13.462;2022-09-09T14:15:01;2.13;;;1.70;;
8462;SDS011;4268;52.506;13.462;2022-09-09T14:17:27;2.33;;;2.10;;
8462;SDS011;4268;52.506;13.462;2022-09-09T14:19:56;2.57;;;2.37;;
8462;SDS011;4268;52.506;13.462;2022-09-09T14:22:21;2.73;;;2.00;;
8462;SDS011;4268;52.506;13.462;2022-09-09T14:24:48;2.60;;;2.40;;
8462;SDS011;4268;52.506;13.462;2022-09-09T14:27:14;2.67;;;2.10;;
8462;SDS011;4268;52.506;13.462;2022-09-09T14:29:39;2.23;;;1.90;;
8462;SDS011;4268;52.506;13.462;2022-09-09T14:32:05;4.00;;;2.10;;
8462;SDS011;4268;52.506;13.462;2022-09-09T14:34:30;2.30;;;1.97;;
8462;SDS011;4268;52.506;13.462;2022-09-09T14:36:57;2.33;;;2.10;;
8462;SDS011;4268;52.506;13.462;2022-09-09T14:39:23;2.40;;;2.20;;
8462;SDS011;4268;52.506;13.462;2022-09-09T14:41:49;1.97;;;1.80;;
8462;SDS011;4268;52.506;13.462;2022-09-09T14:44:14;2.33;;;2.10;;
8462;SDS011;4268;52.506;13.462;2022-09-09T14:46:41;1.23;;;1.23;;
8462;SDS011;4268;52.506;13.462;2022-09-09T14:49:07;3.13;;;2.10;;
8462;SDS011;4268;52.506;13.462;2022-09-09T14:51:35;2.60;;;2.27;;
8462;SDS011;4268;52.506;13.462;2022-09-09T14:54:01;2.33;;;2.13;;
8462;SDS011;4268;52.506;13.462;2022-09-09T14:56:29;2.60;;;2.40;;
8462;SDS011;4268;52.506;13.462;2022-09-09T14:58:56;6.77;;;6.17;;
8462;SDS011;4268;52.506;13.462;2022-09-09T15:01:23;2.47;;;2.20;;
8462;SDS011;4268;52.506;13.462;2022-09-09T15:04:02;2.43;;;2.23;;
8462;SDS011;4268;52.506;13.462;2022-09-09T15:06:30;3.07;;;2.87;;
8462;SDS011;4268;52.506;13.462;2022-09-09T15:08:58;3.03;;;2.80;;
8462;SDS011;4268;52.506;13.462;2022-09-09T15:11:25;3.00;;;2.53;;
8462;SDS011;4268;52.506;13.462;2022-09-09T15:13:52;3.80;;;3.20;;
8462;SDS011;4268;52.506;13.462;2022-09-09T15:16:20;2.40;;;2.30;;
8462;SDS011;4268;52.506;13.462;2022-09-09T15:18:50;2.47;;;2.27;;
8462;SDS011;4268;52.506;13.462;2022-09-09T15:21:19;2.00;;;1.90;;
8462;SDS011;4268;52.506;13.462;2022-09-09T15:23:46;1.90;;;1.80;;
8462;SDS011;4268;52.506;13.462;2022-09-09T15:26:12;1.70;;;1.60;;
8462;SDS011;4268;52.506;13.462;2022-09-09T15:28:39;2.37;;;2.17;;
8462;SDS011;4268;52.506;13.462;2022-09-09T15:31:15;2.20;;;2.00;;
8462;SDS011;4268;52.506;13.462;2022-09-09T15:33:52;2.03;;;1.93;;
8462;SDS011;4268;52.506;13.462;2022-09-09T15:36:25;2.53;;;2.33;;
8462;SDS011;4268;52.506;13.462;2022-09-09T15:38:53;2.77;;;2.30;;
8462;SDS011;4268;52.506;13.462;2022-09-09T15:41:20;3.17;;;2.40;;
8462;SDS011;4268;52.506;13.462;2022-09-09T15:43:47;2.50;;;2.20;;
8462;SDS011;4268;52.506;13.462;2022-09-09T15:48:52;2.87;;;2.00;;
8462;SDS011;4268;52.506;13.462;2022-09-09T15:51:20;3.03;;;2.00;;
8462;SDS011;4268;52.506;13.462;2022-09-09T15:53:46;2.53;;;2.00;;
8462;SDS011;4268;52.506;13.462;2022-09-09T15:56:11;3.17;;;1.80;;
8462;SDS011;4268;52.506;13.462;2022-09-09T15:58:37;2.40;;;2.20;;
8462;SDS011;4268;52.506;13.462;2022-09-09T16:01:03;3.00;;;2.10;;
8462;SDS011;4268;52.506;13.462;2022-09-09T16:03:33;2.33;;;2.13;;
8462;SDS011;4268;52.506;13.462;2022-09-09T16:05:59;2.73;;;1.90;;
8462;SDS011;4268;52.506;13.462;2022-09-09T16:08:37;1.90;;;1.80;;
8462;SDS011;4268;52.506;13.462;2022-09-09T16:11:10;2.37;;;2.00;;
8462;SDS011;4268;52.506;13.462;2022-09-09T16:13:39;2.60;;;2.40;;
8462;SDS011;4268;52.506;13.462;2022-09-09T16:16:05;2.20;;;2.00;;
8462;SDS011;4268;52.506;13.462;2022-09-09T16:18:35;4.43;;;3.33;;
8462;SDS011;4268;52.506;13.462;2022-09-09T16:21:01;1.87;;;1.77;;
8462;SDS011;4268;52.506;13.462;2022-09-09T16:23:29;2.00;;;1.80;;
8462;SDS011;4268;52.506;13.462;2022-09-09T16:25:56;2.30;;;2.10;;
8462;SDS011;4268;52.506;13.462;2022-09-09T16:28:21;2.43;;;2.23;;
8462;SDS011;4268;52.506;13.462;2022-09-09T16:30:47;2.30;;;2.10;;
8462;SDS011;4268;52.506;13.462;2022-09-09T16:33:13;3.63;;;2.27;;
8462;SDS011;4268;52.506;13.462;2022-09-09T16:35:41;2.90;;;2.10;;
8462;SDS011;4268;52.506;13.462;2022-09-09T16:38:07;3.40;;;2.30;;
8462;SDS011;4268;52.506;13.462;2022-09-09T16:40:36;2.40;;;2.20;;
8462;SDS011;4268;52.506;13.462;2022-09-09T16:43:02;2.67;;;2.47;;
8462;SDS011;4268;52.506;13.462;2022-09-09T16:45:30;3.63;;;2.33;;
8462;SDS011;4268;52.506;13.462;2022-09-09T16:47:57;2.50;;;2.30;;
8462;SDS011;4268;52.506;13.462;2022-09-09T16:50:23;2.67;;;2.30;;
8462;SDS011;4268;52.506;13.462;2022-09-09T16:52:49;2.10;;;2.00;;
8462;SDS011;4268;52.506;13.462;2022-09-09T16:55:15;2.50;;;2.30;;
8462;SDS011;4268;52.506;13.462;2022-09-09T16:57:41;3.57;;;2.50;;
8462;SDS011;4268;52.506;13.462;2022-09-09T17:00:07;2.10;;;2.00;;
8462;SDS011;4268;52.506;13.462;2022-09-09T17:02:33;2.30;;;2.10;;